Terminal Aerodrome Forecast
Issued by NWS

Home | Current Version | Previous Version | Text Only | Print | Product List | Glossary On
Versions: 1 2 3 4 5 6 7 8 9 10 11 12
203
FTUS43 KJKL 222325
TAFSME
TAF
KSME 222325Z 2300/2324 VRB05KT P6SM SCT080 OVC150
     FM230700 10010KT P6SM VCSH OVC050
     FM230800 10010KT P6SM -SHRA SCT025 OVC050 WS020/15033KT=

USA.gov is the U.S. government's official web portal to all federal, state and local government web resources and services.